createdAt,value
2024-01-15T00:04:58.900Z,29.8
2024-01-15T00:09:59.168Z,29.8
2024-01-15T00:14:59.426Z,29.8
2024-01-15T00:19:59.670Z,29.8
2024-01-15T00:25:00.183Z,29.7
2024-01-15T00:30:00.470Z,29.7
2024-01-15T00:35:00.751Z,29.7
2024-01-15T00:40:00.976Z,29.7
2024-01-15T00:45:01.179Z,29.7
2024-01-15T00:50:01.401Z,29.6
2024-01-15T00:55:01.666Z,29.6
2024-01-15T01:00:03.756Z,29.6
2024-01-15T01:05:06.006Z,29.6
2024-01-15T01:10:06.269Z,29.6
2024-01-15T01:15:06.515Z,29.6
2024-01-15T01:20:06.957Z,29.6
2024-01-15T01:25:07.339Z,29.6
2024-01-15T01:30:07.804Z,29.6
2024-01-15T01:35:08.215Z,29.6
2024-01-15T01:40:08.451Z,29.6
2024-01-15T01:45:08.712Z,29.6
2024-01-15T01:50:08.950Z,29.5
2024-01-15T01:55:09.169Z,29.6
2024-01-15T02:00:09.384Z,29.5
2024-01-15T02:05:09.670Z,29.5
2024-01-15T02:10:09.932Z,29.5
2024-01-15T02:15:10.198Z,29.5
2024-01-15T02:20:10.463Z,29.5
2024-01-15T02:25:10.649Z,29.4
2024-01-15T02:30:10.972Z,29.4
2024-01-15T02:35:11.298Z,29.4
2024-01-15T02:40:11.523Z,29.4
2024-01-15T02:45:11.773Z,29.4
2024-01-15T02:50:11.992Z,29.4
2024-01-15T02:55:12.214Z,29.4
2024-01-15T03:00:12.454Z,29.4
2024-01-15T03:05:12.718Z,29.4
2024-01-15T03:10:12.955Z,29.4
2024-01-15T03:15:13.394Z,29.4
2024-01-15T03:20:13.842Z,29.4
2024-01-15T03:25:14.142Z,29.3
2024-01-15T03:30:14.432Z,29.3
2024-01-15T03:35:14.813Z,29.3
2024-01-15T03:40:15.749Z,29.3
2024-01-15T03:45:16.849Z,29.3
2024-01-15T03:50:17.123Z,29.3
2024-01-15T03:55:17.328Z,29.3
2024-01-15T04:00:17.612Z,29.3
2024-01-15T04:05:17.916Z,29.3
2024-01-15T04:10:18.107Z,29.3
2024-01-15T04:15:18.445Z,29.3
2024-01-15T04:20:19.827Z,29.3
2024-01-15T04:25:21.283Z,29.3
2024-01-15T04:30:21.573Z,29.2
2024-01-15T04:35:21.937Z,29.2
2024-01-15T04:40:22.136Z,29.2
2024-01-15T04:45:22.395Z,29.2
2024-01-15T04:50:22.636Z,29.2
2024-01-15T04:55:22.833Z,29.2
2024-01-15T05:00:23.071Z,29.1
2024-01-15T05:05:25.038Z,29.1
2024-01-15T05:10:25.321Z,29.1
2024-01-15T05:15:27.191Z,29.1
2024-01-15T05:20:29.081Z,29.1
2024-01-15T05:25:30.995Z,29.1
2024-01-15T05:30:32.900Z,29.1
2024-01-15T05:35:34.877Z,29.1
2024-01-15T05:40:35.069Z,29.1
2024-01-15T05:45:37.144Z,29.1
2024-01-15T05:50:39.020Z,29.1
2024-01-15T05:55:40.895Z,29.1
2024-01-15T06:00:41.252Z,29.1
2024-01-15T06:05:41.677Z,29
2024-01-15T06:10:42.041Z,29
2024-01-15T06:15:42.273Z,29
2024-01-15T06:20:42.642Z,29
2024-01-15T06:25:42.871Z,29
2024-01-15T06:30:43.179Z,28.9
2024-01-15T06:35:43.548Z,29
2024-01-15T06:40:43.744Z,28.9
2024-01-15T06:45:43.950Z,28.9
2024-01-15T06:50:44.197Z,28.9
2024-01-15T06:55:44.431Z,28.9
2024-01-15T07:00:44.692Z,28.9
2024-01-15T07:05:45.154Z,28.9
2024-01-15T07:10:45.413Z,28.9
2024-01-15T07:15:45.818Z,28.9
2024-01-15T07:20:46.086Z,28.9
2024-01-15T07:25:46.294Z,28.9
2024-01-15T07:30:46.715Z,28.9
2024-01-15T07:35:47.069Z,28.9
2024-01-15T07:40:47.276Z,28.8
2024-01-15T07:45:47.524Z,28.8
2024-01-15T07:50:47.870Z,28.8
2024-01-15T07:55:48.082Z,28.8
2024-01-15T08:00:51.121Z,28.8
2024-01-15T08:05:51.498Z,28.8
2024-01-15T08:10:51.728Z,28.8
2024-01-15T08:15:52.183Z,28.7
2024-01-15T08:20:54.205Z,28.7
2024-01-15T08:25:54.427Z,28.7
2024-01-15T08:30:56.386Z,28.7
2024-01-15T08:35:56.836Z,28.7
2024-01-15T08:40:57.048Z,28.7
2024-01-15T08:45:57.282Z,28.7
2024-01-15T08:50:59.129Z,28.7
2024-01-15T08:55:59.382Z,28.7
2024-01-15T09:00:59.752Z,28.5
2024-01-15T09:06:01.818Z,28.4
2024-01-15T09:11:02.122Z,28.4
2024-01-15T09:16:04.010Z,28.4
2024-01-15T09:21:04.256Z,28.4
2024-01-15T09:26:06.125Z,28.4
2024-01-15T09:31:08.117Z,28.4
2024-01-15T09:36:10.183Z,28.4
2024-01-15T09:41:10.433Z,28.4
2024-01-15T09:46:10.651Z,28.4
2024-01-15T09:51:10.873Z,28.4
2024-01-15T09:56:11.125Z,28.4
2024-01-15T10:01:13.112Z,28.3
2024-01-15T10:06:13.536Z,28.3
2024-01-15T10:11:13.988Z,28.3
2024-01-15T10:16:15.916Z,28.3
2024-01-15T10:21:17.790Z,28.3
2024-01-15T10:26:19.239Z,28.3
2024-01-15T10:31:21.618Z,28.3
2024-01-15T10:36:23.633Z,28.3
2024-01-15T10:41:25.475Z,28.3
2024-01-15T10:46:27.373Z,28.2
2024-01-15T10:51:27.616Z,28.2
2024-01-15T10:56:27.904Z,28.2
2024-01-15T11:01:30.086Z,28.2
2024-01-15T11:06:31.324Z,28.2
2024-01-15T11:11:33.206Z,28.2
2024-01-15T11:16:33.420Z,28.2
2024-01-15T11:21:33.642Z,28.2
2024-01-15T11:26:35.573Z,28.2
2024-01-15T11:31:37.543Z,28.1
2024-01-15T11:36:39.623Z,28.2
2024-01-15T11:41:41.563Z,28.1
2024-01-15T11:46:43.678Z,28.1
2024-01-15T11:51:45.514Z,28.1
2024-01-15T11:56:47.367Z,28.1
2024-01-15T12:01:49.450Z,28.1
2024-01-15T12:06:51.531Z,28.1
2024-01-15T12:11:53.688Z,28.1
2024-01-15T12:16:55.568Z,28.1
2024-01-15T12:21:57.422Z,28.1
2024-01-15T12:26:59.274Z,28.1
2024-01-15T12:32:01.118Z,28.1
2024-01-15T12:37:02.932Z,28.1
2024-01-15T12:42:04.786Z,28.1
2024-01-15T12:47:09.578Z,28
2024-01-15T12:52:11.599Z,28
2024-01-15T12:57:13.547Z,28
2024-01-15T13:02:13.909Z,28
2024-01-15T13:07:15.937Z,28
2024-01-15T13:12:17.940Z,28
2024-01-15T13:17:19.892Z,28
2024-01-15T13:22:23.262Z,28
2024-01-15T13:27:26.742Z,28
2024-01-15T13:32:28.628Z,27.9
2024-01-15T13:37:30.469Z,27.9
2024-01-15T13:42:32.364Z,27.9
2024-01-15T13:47:34.507Z,27.9
2024-01-15T13:52:36.315Z,27.9
2024-01-15T13:57:38.174Z,27.9
2024-01-15T14:02:40.091Z,27.9
2024-01-15T14:07:41.915Z,27.9
2024-01-15T14:12:43.759Z,27.9
2024-01-15T14:17:45.693Z,27.9
2024-01-15T14:22:47.587Z,27.9
2024-01-15T14:27:49.505Z,27.9
2024-01-15T14:32:51.529Z,27.9
2024-01-15T14:37:53.477Z,27.9
2024-01-15T14:42:55.325Z,27.9
2024-01-15T14:47:57.193Z,27.9
2024-01-15T14:52:59.064Z,27.8
2024-01-15T14:58:00.925Z,27.8
2024-01-15T15:03:02.973Z,27.8
2024-01-15T15:08:04.773Z,27.8
2024-01-15T15:13:06.673Z,27.8
2024-01-15T15:18:08.554Z,27.8
2024-01-15T15:23:10.534Z,27.8
2024-01-15T15:28:12.344Z,27.8
2024-01-15T15:33:14.225Z,27.8
2024-01-15T15:38:16.164Z,27.8
2024-01-15T15:43:17.989Z,27.8
2024-01-15T15:48:19.884Z,27.8
2024-01-15T15:53:22.040Z,27.8
2024-01-15T15:58:23.920Z,27.8
2024-01-15T16:03:25.745Z,27.8
2024-01-15T16:08:28.073Z,27.8
2024-01-15T16:13:29.883Z,27.8
2024-01-15T16:23:02.646Z,27.8
2024-01-15T16:28:53.155Z,27.7
2024-01-15T16:33:58.411Z,27.7
2024-01-15T16:39:06.052Z,27.7
2024-01-15T16:44:07.866Z,27.7
2024-01-15T16:49:09.708Z,27.7
2024-01-15T16:54:11.533Z,27.6
2024-01-15T16:59:13.369Z,27.6
2024-01-15T17:04:15.228Z,27.6
2024-01-15T17:09:16.988Z,27.6
2024-01-15T17:14:19.019Z,27.6
2024-01-15T17:19:20.992Z,27.6
2024-01-15T17:24:22.835Z,27.6
2024-01-15T17:29:24.702Z,27.6
2024-01-15T17:34:26.674Z,27.6
2024-01-15T17:39:28.542Z,27.6
2024-01-15T17:44:30.557Z,27.6
2024-01-15T17:49:32.381Z,27.6
2024-01-15T17:54:34.487Z,27.6
2024-01-15T17:59:36.452Z,27.6
2024-01-15T18:04:38.253Z,27.6
2024-01-15T18:09:40.033Z,27.6
2024-01-15T18:14:41.942Z,27.6
2024-01-15T18:19:43.792Z,28.7
2024-01-15T18:24:44.030Z,32.1
2024-01-15T18:29:44.415Z,34.6
2024-01-15T18:34:44.907Z,37.3
2024-01-15T18:39:45.459Z,39.3
2024-01-15T18:44:45.977Z,40.5
2024-01-15T18:49:46.557Z,41.3
2024-01-15T18:54:48.122Z,41.9
2024-01-15T18:59:48.715Z,41.9
2024-01-15T19:04:52.186Z,42.5
2024-01-15T19:09:53.573Z,42.7
2024-01-15T19:14:54.178Z,42.7
2024-01-15T19:19:54.812Z,42.7
2024-01-15T19:24:55.396Z,42.7
2024-01-15T19:29:56.018Z,43.4
2024-01-15T19:34:56.613Z,43.5
2024-01-15T19:39:57.275Z,43.4
2024-01-15T19:44:57.944Z,44.1
2024-01-15T19:49:58.594Z,44.4
2024-01-15T19:54:59.252Z,44.4
2024-01-15T19:59:59.905Z,44.4
2024-01-15T20:05:00.682Z,44.4
2024-01-15T20:10:01.379Z,44.3
2024-01-15T20:15:02.028Z,44.3
2024-01-15T20:20:02.843Z,44.2
2024-01-15T20:25:03.608Z,44.2
2024-01-15T20:30:04.271Z,44.2
2024-01-15T20:35:04.934Z,44.2
2024-01-15T20:40:05.732Z,44.1
2024-01-15T20:45:06.367Z,44.1
2024-01-15T20:50:07.018Z,44.1
2024-01-15T20:55:07.709Z,44
2024-01-15T21:00:08.588Z,44
2024-01-15T21:05:09.843Z,43.9
2024-01-15T21:10:10.628Z,43.9
2024-01-15T21:15:11.259Z,43.9
2024-01-15T21:20:11.874Z,43.8
2024-01-15T21:25:12.517Z,43.8
2024-01-15T21:30:13.174Z,43.7
2024-01-15T21:35:13.839Z,43.7
2024-01-15T21:40:14.473Z,43.7
2024-01-15T21:45:15.055Z,43.7
2024-01-15T21:50:15.695Z,43.6
2024-01-15T21:55:16.316Z,43.6
2024-01-15T22:00:16.943Z,43.6
2024-01-15T22:05:17.623Z,43.5
2024-01-15T22:10:18.353Z,43.5
2024-01-15T22:15:20.010Z,43.4
2024-01-15T22:20:20.645Z,42
2024-01-15T22:25:21.264Z,41.6
2024-01-15T22:30:21.769Z,41.5
2024-01-15T22:35:22.299Z,41.4
2024-01-15T22:40:22.786Z,41.4
2024-01-15T22:45:23.461Z,41.4
2024-01-15T22:50:24.252Z,41.3
2024-01-15T22:55:24.842Z,41.2
2024-01-15T23:00:25.467Z,41.2
2024-01-15T23:05:26.038Z,41.1
2024-01-15T23:10:26.669Z,41.1
2024-01-15T23:15:27.157Z,41
2024-01-15T23:20:27.738Z,40.9
2024-01-15T23:25:28.333Z,40.9
2024-01-15T23:30:28.908Z,40.9
2024-01-15T23:35:29.455Z,40.8
2024-01-15T23:40:30.068Z,40.8
2024-01-15T23:45:30.588Z,40.7
2024-01-15T23:50:31.205Z,40.6
2024-01-15T23:55:31.809Z,40.6
